Time;durP1;ratioP1;P1;durP2;ratioP2;P2;SDS_P1;SDS_P2;PMS_P1;PMS_P2;Temp;Humidity;BMP_temperature;BMP_pressure;BME280_temperature;BME280_humidity;BME280_pressure;Samples;Min_cycle;Max_cycle;Signal;HPM_P1;HPM_P2
2022/06/19 00:00:08;;;;;;;29.60;4.78;;;;;;;13.55;100.00;100862.69;5025433;28;20275;-76
2022/06/19 00:02:38;;;;;;;27.92;4.80;;;;;;;13.61;100.00;100870.03;5026089;28;20033;-75
2022/06/19 00:05:04;;;;;;;24.27;4.38;;;;;;;13.63;100.00;100873.34;5024588;28;20044;-75
2022/06/19 00:07:30;;;;;;;17.65;5.18;;;;;;;13.63;100.00;100886.78;5024381;28;20025;-75
2022/06/19 00:09:56;;;;;;;27.20;3.97;;;;;;;13.55;100.00;100881.44;5024084;28;20102;-76
2022/06/19 00:12:22;;;;;;;12.43;3.17;;;;;;;13.59;100.00;100888.97;5025864;28;20029;-76
2022/06/19 00:14:47;;;;;;;15.00;4.13;;;;;;;13.59;100.00;100888.13;5024590;28;20044;-76
2022/06/19 00:17:14;;;;;;;15.90;3.40;;;;;;;13.60;100.00;100901.38;5025583;28;20375;-76
2022/06/19 00:19:39;;;;;;;;;;;;;;;13.66;100.00;100911.38;5007900;28;20288;-76
2022/06/19 00:22:05;;;;;;;;;;;;;;;13.58;100.00;100899.88;5024802;28;19920;-75
2022/06/19 00:24:30;;;;;;;13.43;3.27;;;;;;;13.54;100.00;100890.53;5025591;28;19940;-75
2022/06/19 00:26:56;;;;;;;26.20;4.20;;;;;;;13.52;100.00;100899.56;5024444;28;20037;-75
2022/06/19 00:29:21;;;;;;;22.52;4.20;;;;;;;13.40;100.00;100886.75;5023990;28;20084;-76
2022/06/19 00:31:47;;;;;;;28.03;4.17;;;;;;;13.36;100.00;100878.22;5025095;28;20436;-76
2022/06/19 00:34:12;;;;;;;23.60;4.13;;;;;;;13.26;100.00;100882.94;5024218;28;20120;-75
2022/06/19 00:36:38;;;;;;;29.57;4.83;;;;;;;13.21;100.00;100874.63;5023994;28;20029;-76
2022/06/19 00:39:03;;;;;;;30.40;4.40;;;;;;;13.25;100.00;100895.53;5023668;28;20037;-75
2022/06/19 00:41:34;;;;;;;18.57;3.60;;;;;;;13.35;100.00;100910.59;5023325;28;20033;-77
2022/06/19 00:44:09;;;;;;;24.67;4.53;;;;;;;13.38;100.00;100900.34;5025431;28;20041;-75
2022/06/19 00:46:44;;;;;;;19.38;4.32;;;;;;;13.41;100.00;100894.59;5023287;28;20517;-75
2022/06/19 00:49:13;;;;;;;23.67;3.92;;;;;;;13.46;100.00;100889.56;5025201;28;20124;-76
2022/06/19 00:51:39;;;;;;;22.00;4.28;;;;;;;13.47;100.00;100887.72;5024750;28;20463;-76
2022/06/19 00:54:06;;;;;;;21.23;4.03;;;;;;;13.46;100.00;100894.94;5025233;28;20037;-74
2022/06/19 00:56:33;;;;;;;17.15;5.07;;;;;;;13.47;100.00;100896.59;5024064;28;20033;-76
2022/06/19 00:58:58;;;;;;;21.08;3.90;;;;;;;13.56;100.00;100883.13;5024948;28;20044;-75
2022/06/19 01:01:27;;;;;;;31.30;4.82;;;;;;;13.58;100.00;100860.47;5024728;28;20033;-76
2022/06/19 01:04:01;;;;;;;20.75;4.18;;;;;;;13.67;100.00;100837.94;5025216;28;20037;-76
2022/06/19 01:06:27;;;;;;;24.23;6.47;;;;;;;13.61;100.00;100813.69;5025177;28;20061;-76
2022/06/19 01:08:55;;;;;;;29.63;4.97;;;;;;;13.62;100.00;100809.97;5025132;28;20435;-76
2022/06/19 01:11:22;;;;;;;23.15;4.97;;;;;;;13.70;100.00;100826.84;5007064;28;20038;-76
2022/06/19 01:13:49;;;;;;;28.52;5.75;;;;;;;13.64;100.00;100811.47;5023755;28;20025;-75
2022/06/19 01:16:15;;;;;;;27.38;5.53;;;;;;;13.69;100.00;100805.56;5023772;28;20132;-75
2022/06/19 01:18:41;;;;;;;27.83;4.43;;;;;;;13.72;100.00;100815.94;5023619;28;20028;-76
2022/06/19 01:21:20;;;;;;;34.60;4.75;;;;;;;13.70;100.00;100826.03;5006982;28;20063;-75
2022/06/19 01:24:04;;;;;;;22.58;4.60;;;;;;;13.69;100.00;100817.09;5023688;28;20037;-76
2022/06/19 01:26:36;;;;;;;21.65;3.83;;;;;;;13.73;100.00;100812.22;5021333;28;20041;-76
2022/06/19 01:29:02;;;;;;;31.67;5.68;;;;;;;13.76;100.00;100808.34;5030074;28;20394;-76
2022/06/19 01:31:37;;;;;;;21.85;3.67;;;;;;;13.73;100.00;100809.53;5024157;28;20469;-76
2022/06/19 01:34:28;;;;;;;26.02;4.93;;;;;;;13.70;100.00;100799.19;5023707;28;20079;-76
2022/06/19 01:37:17;;;;;;;25.60;4.22;;;;;;;13.70;100.00;100783.91;5015384;28;20467;-76
2022/06/19 01:39:50;;;;;;;33.88;5.95;;;;;;;13.68;100.00;100782.44;5021956;28;20037;-76
2022/06/19 01:42:16;;;;;;;22.63;4.22;;;;;;;13.66;100.00;100787.13;5006756;28;20462;-76
2022/06/19 01:44:43;;;;;;;;;;;;;;;13.65;100.00;100782.78;5007151;28;20031;-77
2022/06/19 01:47:09;;;;;;;35.10;4.97;;;;;;;13.70;100.00;100767.81;5023322;28;20313;-76
2022/06/19 01:49:36;;;;;;;26.48;4.72;;;;;;;13.71;100.00;100747.19;5006577;28;20405;-75
2022/06/19 01:52:04;;;;;;;18.38;3.80;;;;;;;13.72;100.00;100744.31;5027355;28;20029;-76
2022/06/19 01:54:36;;;;;;;17.30;3.60;;;;;;;13.65;100.00;100729.13;5019035;28;20585;-75
2022/06/19 01:57:05;;;;;;;23.50;4.47;;;;;;;13.59;100.00;100717.28;5010292;28;20029;-76
2022/06/19 01:59:32;;;;;;;25.52;6.05;;;;;;;13.70;100.00;100719.53;5040686;28;20274;-76
2022/06/19 02:01:59;;;;;;;27.38;5.97;;;;;;;13.68;100.00;100704.63;5026610;28;20049;-76
2022/06/19 02:04:25;;;;;;;20.60;3.42;;;;;;;13.69;100.00;100676.78;5026855;28;20021;-76
2022/06/19 02:06:54;;;;;;;19.45;4.90;;;;;;;13.82;100.00;100687.69;5026759;28;20048;-75
2022/06/19 02:09:21;;;;;;;14.82;3.47;;;;;;;13.76;100.00;100663.47;5026603;28;20037;-74
2022/06/19 02:11:47;;;;;;;18.95;4.70;;;;;;;13.71;100.00;100666.69;5026426;28;20491;-75
2022/06/19 02:14:13;;;;;;;21.07;3.67;;;;;;;13.68;100.00;100645.59;5027601;28;20087;-76
2022/06/19 02:16:42;;;;;;;17.42;5.00;;;;;;;13.86;100.00;100645.22;5026579;28;20037;-76
2022/06/19 02:19:08;;;;;;;16.60;3.67;;;;;;;13.82;100.00;100631.34;5026378;28;20031;-76
2022/06/19 02:21:41;;;;;;;13.82;3.60;;;;;;;13.66;100.00;100620.81;5009708;28;20037;-75
2022/06/19 02:24:09;;;;;;;22.23;5.18;;;;;;;13.63;100.00;100642.66;5027755;28;20026;-76
2022/06/19 02:26:37;;;;;;;16.17;3.67;;;;;;;13.77;100.00;100649.03;5027804;28;20022;-75
2022/06/19 02:29:06;;;;;;;32.13;5.45;;;;;;;13.50;100.00;100633.38;5009811;28;20080;-76
2022/06/19 02:31:33;;;;;;;21.73;4.65;;;;;;;13.43;100.00;100631.63;5007195;28;20029;-76
2022/06/19 02:34:05;;;;;;;21.30;3.63;;;;;;;13.40;100.00;100638.19;5021043;28;20388;-76
2022/06/19 02:36:46;;;;;;;19.27;4.40;;;;;;;13.43;100.00;100645.84;5020819;28;20041;-76
2022/06/19 02:39:21;;;;;;;20.42;3.63;;;;;;;13.45;100.00;100651.06;5025993;28;20049;-76
2022/06/19 02:41:57;;;;;;;20.15;4.30;;;;;;;13.44;100.00;100655.59;5009209;28;20041;-76
2022/06/19 02:44:30;;;;;;;22.45;4.45;;;;;;;13.40;100.00;100665.00;5026158;28;20079;-76
2022/06/19 02:46:56;;;;;;;21.08;4.10;;;;;;;13.42;100.00;100662.16;5022876;28;20106;-76
2022/06/19 02:49:21;;;;;;;15.47;3.20;;;;;;;13.42;100.00;100672.88;5009353;28;20021;-76
2022/06/19 02:51:46;;;;;;;28.43;4.83;;;;;;;13.42;100.00;100684.44;5009200;28;20030;-76
2022/06/19 02:54:12;;;;;;;17.63;4.13;;;;;;;13.48;100.00;100693.59;5027226;28;20025;-76
2022/06/19 02:56:37;;;;;;;16.15;3.38;;;;;;;13.51;100.00;100693.25;5027187;28;20561;-76
2022/06/19 02:59:03;;;;;;;15.73;4.13;;;;;;;13.53;100.00;100701.91;5026717;28;20033;-76
2022/06/19 03:01:28;;;;;;;21.20;4.87;;;;;;;13.58;100.00;100722.81;5026907;28;20064;-77
2022/06/19 03:03:53;;;;;;;21.87;4.60;;;;;;;13.59;100.00;100728.00;5009100;28;20638;-77
2022/06/19 03:06:19;;;;;;;26.73;4.70;;;;;;;13.64;100.00;100735.53;5025804;28;20033;-78
2022/06/19 03:08:44;;;;;;;27.33;4.60;;;;;;;13.67;100.00;100740.50;5025540;28;20056;-76
2022/06/19 03:11:10;;;;;;;25.60;4.57;;;;;;;13.67;100.00;100753.91;5025095;28;20120;-75
2022/06/19 03:13:35;;;;;;;15.85;4.55;;;;;;;13.71;100.00;100734.59;5025432;28;20040;-76
2022/06/19 03:16:02;;;;;;;25.83;4.00;;;;;;;13.74;100.00;100736.06;5025466;28;20033;-76
2022/06/19 03:18:29;;;;;;;15.63;4.15;;;;;;;13.76;100.00;100747.47;5025115;28;20025;-76
2022/06/19 03:20:55;;;;;;;18.77;4.13;;;;;;;13.85;100.00;100746.34;5042421;22;20049;-75
2022/06/19 03:23:20;;;;;;;18.65;3.63;;;;;;;13.88;100.00;100745.16;5028142;28;20485;-74
2022/06/19 03:25:46;;;;;;;20.92;4.57;;;;;;;13.84;100.00;100755.44;5025802;28;20044;-74
2022/06/19 03:28:11;;;;;;;20.43;3.80;;;;;;;13.79;100.00;100771.25;5026219;28;20112;-75
2022/06/19 03:30:36;;;;;;;35.93;6.67;;;;;;;13.75;100.00;100796.78;5035550;28;20030;-75
2022/06/19 03:33:02;;;;;;;24.83;4.73;;;;;;;13.66;100.00;100800.56;5021112;28;20037;-75
2022/06/19 03:35:27;;;;;;;22.20;5.73;;;;;;;13.64;100.00;100802.59;5016742;28;20041;-75
2022/06/19 03:37:53;;;;;;;16.73;4.30;;;;;;;13.61;100.00;100825.25;5019673;28;20029;-75
2022/06/19 03:40:18;;;;;;;13.53;4.50;;;;;;;13.70;100.00;100847.47;5017162;28;20033;-76
2022/06/19 03:42:44;;;;;;;19.47;3.87;;;;;;;13.59;100.00;100829.13;4993307;28;20018;-75
2022/06/19 03:45:09;;;;;;;17.47;4.37;;;;;;;13.62;100.00;100809.97;5010990;28;20065;-75
2022/06/19 03:47:35;;;;;;;29.43;5.30;;;;;;;13.63;100.00;100799.06;5007073;28;20403;-75
2022/06/19 03:50:01;;;;;;;23.73;4.90;;;;;;;13.57;100.00;100793.59;5018699;28;20123;-75
2022/06/19 03:52:27;;;;;;;30.58;5.30;;;;;;;13.60;100.00;100777.97;5005698;28;20018;-74
2022/06/19 03:54:52;;;;;;;25.73;4.33;;;;;;;13.61;100.00;100786.84;5019597;28;20120;-74
2022/06/19 03:57:17;;;;;;;21.57;5.37;;;;;;;13.58;100.00;100780.00;5018399;28;20498;-76
2022/06/19 03:59:43;;;;;;;23.53;5.23;;;;;;;13.66;100.00;100771.03;5024163;28;20037;-76
2022/06/19 04:02:10;;;;;;;24.00;4.23;;;;;;;13.70;100.00;100756.25;5018587;28;20026;-75
2022/06/19 04:04:39;;;;;;;30.55;4.47;;;;;;;13.71;100.00;100733.75;5017173;28;20037;-74
2022/06/19 04:07:06;;;;;;;24.35;5.40;;;;;;;13.72;100.00;100727.41;5020156;28;20424;-74
2022/06/19 04:09:31;;;;;;;24.63;4.57;;;;;;;13.81;100.00;100712.03;5020539;28;20079;-75
2022/06/19 04:11:56;;;;;;;22.37;4.00;;;;;;;13.90;100.00;100706.38;5019877;28;20449;-74
2022/06/19 04:14:22;;;;;;;24.03;4.43;;;;;;;13.88;100.00;100683.44;5015630;28;20040;-75
2022/06/19 04:16:47;;;;;;;20.60;4.50;;;;;;;13.93;100.00;100681.88;5018553;28;20095;-75
2022/06/19 04:19:14;;;;;;;18.60;3.90;;;;;;;14.04;100.00;100664.44;5020224;28;20593;-74
2022/06/19 04:21:45;;;;;;;23.58;4.93;;;;;;;14.12;100.00;100666.22;5022945;28;20048;-75
2022/06/19 04:24:13;;;;;;;19.50;4.70;;;;;;;14.14;100.00;100661.47;5019265;28;20037;-75
2022/06/19 04:26:40;;;;;;;24.00;5.68;;;;;;;14.19;100.00;100642.97;5018099;28;20018;-74
2022/06/19 04:29:06;;;;;;;24.55;4.53;;;;;;;14.24;100.00;100662.03;5019436;28;20045;-75
2022/06/19 04:31:32;;;;;;;19.55;5.40;;;;;;;14.27;100.00;100663.50;5017699;28;20102;-74
2022/06/19 04:33:57;;;;;;;16.33;4.97;;;;;;;14.28;100.00;100659.78;5020141;28;20498;-77
2022/06/19 04:36:25;;;;;;;20.23;4.87;;;;;;;14.32;100.00;100659.22;5015836;28;20034;-75
2022/06/19 04:38:54;;;;;;;22.30;4.95;;;;;;;14.39;100.00;100651.22;5002904;28;20044;-75
2022/06/19 04:41:25;;;;;;;20.52;5.88;;;;;;;14.34;100.00;100624.94;5017370;28;20177;-75
2022/06/19 04:43:51;;;;;;;17.23;4.55;;;;;;;14.29;100.00;100589.78;5008780;28;20030;-74
2022/06/19 04:46:21;;;;;;;19.77;3.97;;;;;;;14.26;100.00;100549.88;5016399;28;20025;-75
2022/06/19 04:48:47;;;;;;;15.85;4.40;;;;;;;14.29;100.00;100492.28;5009368;28;20034;-76
2022/06/19 04:51:12;;;;;;;13.00;2.95;;;;;;;14.27;100.00;100454.88;5003712;28;20068;-75
2022/06/19 04:53:39;;;;;;;17.90;3.55;;;;;;;14.39;100.00;100439.06;5018276;28;20108;-75
2022/06/19 04:56:06;;;;;;;21.02;4.45;;;;;;;14.38;100.00;100389.06;5001748;28;20037;-76
2022/06/19 04:58:32;;;;;;;14.27;3.45;;;;;;;14.41;100.00;100355.63;5004993;28;20030;-75
2022/06/19 05:00:57;;;;;;;15.85;4.18;;;;;;;14.40;100.00;100332.47;5018651;28;20087;-75
2022/06/19 05:03:24;;;;;;;14.70;3.53;;;;;;;14.45;100.00;100348.84;5010538;28;20041;-75
2022/06/19 05:05:51;;;;;;;18.00;4.07;;;;;;;14.54;100.00;100361.13;4988165;28;20808;-76
2022/06/19 05:08:17;;;;;;;12.10;3.03;;;;;;;14.66;100.00;100388.25;5015759;28;20433;-75
2022/06/19 05:10:42;;;;;;;11.17;4.23;;;;;;;14.62;100.00;100392.34;5005848;28;20022;-75
2022/06/19 05:13:19;;;;;;;8.50;3.13;;;;;;;14.63;100.00;100419.00;5018053;28;20120;-77
2022/06/19 05:15:46;;;;;;;13.50;3.15;;;;;;;14.60;100.00;100399.78;5017287;28;20041;-75
2022/06/19 05:18:13;;;;;;;10.43;3.03;;;;;;;14.51;100.00;100361.47;5016961;28;20033;-76
2022/06/19 05:20:38;;;;;;;;;;;;;;;14.55;100.00;100373.50;5008121;28;20521;-75
2022/06/19 05:23:04;;;;;;;;;;;;;;;14.67;100.00;100425.66;5016545;28;20013;-75
2022/06/19 05:25:30;;;;;;;6.25;2.22;;;;;;;14.55;100.00;100373.50;5016959;28;19917;-75
2022/06/19 05:27:55;;;;;;;6.80;1.80;;;;;;;14.43;100.00;100332.09;5022821;28;20079;-75
2022/06/19 05:30:21;;;;;;;10.67;1.60;;;;;;;14.31;100.00;100313.84;5019035;28;20037;-77
2022/06/19 05:32:46;;;;;;;5.40;1.57;;;;;;;14.25;100.00;100271.66;5024030;28;20256;-77
2022/06/19 05:35:11;;;;;;;2.60;1.27;;;;;;;14.18;100.00;100249.31;4996743;28;20041;-74
2022/06/19 05:37:37;;;;;;;6.97;1.80;;;;;;;14.12;100.00;100392.41;5009321;28;20038;-75
2022/06/19 05:40:03;;;;;;;4.80;1.48;;;;;;;13.90;100.00;100451.44;5021354;28;20251;-75
2022/06/19 05:42:28;;;;;;;6.72;1.80;;;;;;;13.85;100.00;100550.47;5019284;28;20026;-75
2022/06/19 05:44:53;;;;;;;7.13;2.40;;;;;;;13.83;100.00;100603.47;5017821;28;20042;-74
2022/06/19 05:47:19;;;;;;;11.70;2.67;;;;;;;13.88;100.00;100621.72;5023905;28;20426;-75
2022/06/19 05:49:44;;;;;;;8.87;2.23;;;;;;;13.85;100.00;100641.69;5021530;28;20709;-74
2022/06/19 05:52:17;;;;;;;17.63;3.03;;;;;;;13.79;100.00;100620.16;5020726;28;20095;-74
2022/06/19 05:54:43;;;;;;;7.53;3.15;;;;;;;13.87;100.00;100612.84;5015363;28;20529;-74
2022/06/19 05:57:08;;;;;;;9.85;2.70;;;;;;;13.87;100.00;100602.09;5020875;28;20379;-75
2022/06/19 05:59:34;;;;;;;8.03;2.67;;;;;;;13.89;100.00;100599.25;5013226;28;20033;-74
2022/06/19 06:01:59;;;;;;;12.80;2.63;;;;;;;13.97;100.00;100600.97;5018549;28;20029;-74
2022/06/19 06:04:26;;;;;;;9.67;2.47;;;;;;;14.06;100.00;100621.31;5019211;28;20112;-76
2022/06/19 06:06:52;;;;;;;9.10;2.38;;;;;;;14.07;100.00;100649.81;5021146;28;20049;-75
2022/06/19 06:09:18;;;;;;;6.15;2.13;;;;;;;14.00;100.00;100665.88;5010005;28;20034;-74
2022/06/19 06:11:43;;;;;;;10.80;2.42;;;;;;;14.01;100.00;100737.31;5016347;28;20662;-74
2022/06/19 06:14:09;;;;;;;7.82;3.28;;;;;;;13.98;100.00;100767.22;5020217;28;20040;-75
2022/06/19 06:16:34;;;;;;;17.00;3.37;;;;;;;13.88;100.00;100737.09;5024802;28;20513;-76
2022/06/19 06:19:00;;;;;;;10.60;3.17;;;;;;;13.81;100.00;100728.94;5019955;28;20042;-75
2022/06/19 06:21:26;;;;;;;16.13;4.00;;;;;;;13.77;100.00;100708.91;5017825;28;20112;-75
2022/06/19 06:23:54;;;;;;;12.48;3.08;;;;;;;13.79;100.00;100647.84;5021579;28;20045;-74
2022/06/19 06:26:22;;;;;;;9.80;3.33;;;;;;;13.77;100.00;100673.19;5017169;28;20329;-74
2022/06/19 06:28:50;;;;;;;17.10;3.35;;;;;;;13.78;100.00;100681.03;5022053;28;20037;-74
2022/06/19 06:31:16;;;;;;;11.02;3.33;;;;;;;13.84;100.00;100683.00;5019944;28;20025;-74
2022/06/19 06:33:42;;;;;;;10.10;4.07;;;;;;;13.73;100.00;100686.94;5020023;28;20030;-74
2022/06/19 06:36:08;;;;;;;15.02;3.95;;;;;;;13.62;100.00;100716.09;5021401;28;20032;-74
2022/06/19 06:38:34;;;;;;;;;;;;;;;13.18;100.00;100668.53;5034422;28;20030;-75
2022/06/19 06:40:59;;;;;;;;;;;;;;;13.36;100.00;100604.72;5020696;28;19958;-74
2022/06/19 06:43:25;;;;;;;15.80;2.90;;;;;;;13.06;100.00;100604.66;5019349;28;19920;-75
2022/06/19 06:45:50;;;;;;;12.27;3.50;;;;;;;13.17;100.00;100621.31;5020554;28;20492;-75
2022/06/19 06:48:18;;;;;;;16.87;3.50;;;;;;;13.36;100.00;100611.94;5018832;28;20029;-75
2022/06/19 06:50:44;;;;;;;9.90;3.13;;;;;;;13.36;100.00;100582.44;5010513;28;20475;-76
2022/06/19 06:53:11;;;;;;;12.75;3.65;;;;;;;13.42;100.00;100603.97;5017970;28;20067;-74
2022/06/19 06:55:44;;;;;;;12.57;3.63;;;;;;;13.29;100.00;100607.28;5024545;28;20025;-74
2022/06/19 06:58:09;;;;;;;13.40;3.08;;;;;;;13.35;100.00;100570.88;5019553;28;20127;-73
2022/06/19 07:00:36;;;;;;;10.27;3.00;;;;;;;13.36;100.00;100577.06;5014172;28;20037;-74
2022/06/19 07:03:01;;;;;;;;;;;;;;;13.33;100.00;100572.91;5020840;28;20117;-75
2022/06/19 07:05:26;;;;;;;;;;;;;;;13.31;100.00;100574.94;5017559;28;20429;-74
2022/06/19 07:07:52;;;;;;;21.90;4.37;;;;;;;13.28;100.00;100583.38;5025730;28;19967;-73
2022/06/19 07:10:18;;;;;;;12.07;3.97;;;;;;;13.24;100.00;100590.06;5001149;28;20438;-73
2022/06/19 07:12:43;;;;;;;19.25;4.03;;;;;;;13.24;100.00;100590.06;5018035;28;20072;-74
2022/06/19 07:15:12;;;;;;;13.17;3.10;;;;;;;13.27;100.00;100584.34;5019171;28;20033;-74
2022/06/19 07:17:38;;;;;;;13.25;3.97;;;;;;;13.36;100.00;100582.44;4991459;28;20120;-74
2022/06/19 07:20:04;;;;;;;11.53;3.90;;;;;;;13.36;100.00;100583.25;5019476;28;20025;-74
2022/06/19 07:22:30;;;;;;;21.15;4.10;;;;;;;13.37;100.00;100582.25;5005274;28;20044;-73
2022/06/19 07:24:55;;;;;;;17.53;4.07;;;;;;;13.35;100.00;100591.50;5011211;28;20030;-75
2022/06/19 07:27:20;;;;;;;17.47;3.83;;;;;;;13.35;100.00;100599.56;5017615;28;20037;-73
2022/06/19 07:29:46;;;;;;;19.47;3.63;;;;;;;13.40;100.00;100589.09;5020359;28;20036;-73
2022/06/19 07:32:12;;;;;;;15.23;3.30;;;;;;;13.40;100.00;100573.84;5019314;28;20037;-74
2022/06/19 07:34:39;;;;;;;23.08;4.32;;;;;;;13.41;100.00;100562.09;5009421;28;20480;-73
2022/06/19 07:37:06;;;;;;;12.60;3.50;;;;;;;13.46;100.00;100557.03;5017358;28;20033;-73
2022/06/19 07:39:35;;;;;;;17.95;4.82;;;;;;;13.37;100.00;100546.53;5008202;28;20052;-73
2022/06/19 07:42:01;;;;;;;24.45;4.68;;;;;;;13.38;100.00;100540.19;5016733;28;20406;-75
2022/06/19 07:44:27;;;;;;;17.15;3.35;;;;;;;13.42;100.00;100533.44;5032954;28;20022;-73
2022/06/19 07:52:21;;;;;;;13.05;3.80;;;;;;;13.80;100.00;100515.31;5012479;28;20061;-74
2022/06/19 07:54:47;;;;;;;18.35;4.55;;;;;;;13.80;100.00;100511.81;5008217;28;20496;-74
2022/06/19 07:57:12;;;;;;;17.42;3.95;;;;;;;13.87;100.00;100516.22;5019284;28;20041;-73
2022/06/19 07:59:38;;;;;;;18.87;3.20;;;;;;;13.88;100.00;100519.72;5018756;28;20036;-74
2022/06/19 08:02:03;;;;;;;12.87;3.73;;;;;;;14.01;100.00;100538.69;5018938;28;20584;-73
2022/06/19 08:04:29;;;;;;;17.25;4.75;;;;;;;14.04;100.00;100549.03;4989102;28;20299;-72
2022/06/19 08:06:54;;;;;;;15.87;3.87;;;;;;;14.16;100.00;100552.03;4994059;28;20046;-75
2022/06/19 08:09:19;;;;;;;21.10;5.03;;;;;;;14.20;100.00;100561.38;5004810;28;20026;-74
2022/06/19 08:11:45;;;;;;;14.00;3.73;;;;;;;14.39;100.00;100551.03;4993014;28;20045;-73
2022/06/19 08:14:10;;;;;;;17.47;3.63;;;;;;;14.56;100.00;100555.13;5016748;28;20447;-74
2022/06/19 08:16:36;;;;;;;29.47;5.57;;;;;;;14.62;100.00;100572.34;5022591;28;20034;-74
2022/06/19 08:19:01;;;;;;;22.83;4.33;;;;;;;14.38;100.00;100555.56;5019838;28;20036;-74
2022/06/19 08:21:27;;;;;;;25.85;4.00;;;;;;;14.30;100.00;100556.50;5015305;28;20037;-73
2022/06/19 08:23:52;;;;;;;19.10;4.13;;;;;;;14.21;100.00;100552.31;5019746;28;20037;-73
2022/06/19 08:26:18;;;;;;;22.80;4.10;;;;;;;14.31;100.00;100555.50;5017129;28;20045;-74
2022/06/19 08:28:53;;;;;;;23.63;4.65;;;;;;;14.31;100.00;100543.94;5017990;28;20022;-75
2022/06/19 08:31:18;;;;;;;18.30;3.78;;;;;;;14.30;100.00;100561.88;5013342;28;20041;-73
2022/06/19 08:33:43;;;;;;;18.57;3.73;;;;;;;14.42;100.00;100572.13;5007012;28;20013;-73
2022/06/19 08:36:11;;;;;;;23.53;6.97;;;;;;;14.53;100.00;100571.63;5001544;28;20068;-73
2022/06/19 08:38:42;;;;;;;14.38;4.05;;;;;;;14.66;100.00;100558.34;5006130;28;20068;-74
2022/06/19 08:41:39;;;;;;;22.63;4.22;;;;;;;15.01;100.00;100561.09;5019019;28;20069;-73
2022/06/19 08:44:19;;;;;;;23.55;4.90;;;;;;;15.24;100.00;100566.22;5008160;28;20057;-74
2022/06/19 08:46:57;;;;;;;24.67;5.78;;;;;;;15.27;100.00;100543.47;5023474;28;20079;-74
2022/06/19 08:49:40;;;;;;;19.30;3.45;;;;;;;15.60;100.00;100520.25;4999033;28;20053;-74
2022/06/19 08:52:31;;;;;;;16.42;3.50;;;;;;;15.67;100.00;100500.59;5011870;28;20037;-74
2022/06/19 08:55:22;;;;;;;18.27;3.13;;;;;;;15.76;100.00;100520.97;5016198;28;20038;-74
2022/06/19 08:58:02;;;;;;;13.45;3.22;;;;;;;15.82;100.00;100526.34;5019062;28;20034;-76
2022/06/19 09:00:49;;;;;;;13.77;3.47;;;;;;;16.22;100.00;100541.78;5015959;28;20033;-76
2022/06/19 09:06:45;;;;;;;20.73;3.95;;;;;;;15.93;100.00;100545.66;5015990;28;20030;-74
2022/06/19 09:09:41;;;;;;;30.55;6.10;;;;;;;15.93;100.00;100570.69;5020324;28;20065;-75
2022/06/19 09:12:18;;;;;;;17.85;3.25;;;;;;;15.87;100.00;100576.06;5012991;28;20033;-75
2022/06/19 09:15:05;;;;;;;12.73;4.07;;;;;;;15.68;100.00;100566.84;5023141;28;20029;-76
2022/06/19 09:17:55;;;;;;;14.93;3.22;;;;;;;15.79;100.00;100593.22;4984496;28;20029;-77
2022/06/19 09:20:26;;;;;;;15.93;3.80;;;;;;;15.79;100.00;100618.28;5021198;28;20057;-75
2022/06/19 09:23:09;;;;;;;26.25;4.47;;;;;;;15.62;100.00;100633.06;5015424;28;20128;-76
2022/06/19 09:25:45;;;;;;;17.75;3.67;;;;;;;15.68;100.00;100647.56;4998182;28;20066;-75
2022/06/19 09:28:41;;;;;;;14.43;3.72;;;;;;;15.76;100.00;100653.66;5014476;28;20033;-77
2022/06/19 09:31:13;;;;;;;20.70;3.60;;;;;;;15.63;100.00;100646.31;5002401;28;20483;-75
2022/06/19 09:34:05;;;;;;;15.95;2.90;;;;;;;15.53;100.00;100655.78;5009569;28;21581;-75
2022/06/19 09:36:44;;;;;;;17.67;4.03;;;;;;;15.48;100.00;100659.06;5006193;28;20041;-76
2022/06/19 09:39:31;;;;;;;15.38;3.40;;;;;;;15.50;100.00;100640.88;5012778;28;20053;-74
2022/06/19 09:42:12;;;;;;;19.98;4.40;;;;;;;15.90;100.00;100661.81;5003352;28;20084;-76
2022/06/19 09:44:46;;;;;;;17.85;3.25;;;;;;;15.85;100.00;100643.59;5031517;28;20129;-75
2022/06/19 09:47:22;;;;;;;18.67;4.28;;;;;;;16.01;100.00;100627.09;5000437;28;20072;-76
2022/06/19 09:49:56;;;;;;;15.95;2.72;;;;;;;15.99;100.00;100623.75;5018449;28;20077;-75
2022/06/19 09:52:31;;;;;;;23.25;5.43;;;;;;;16.15;100.00;100632.50;5016619;28;20045;-76
2022/06/19 09:55:07;;;;;;;16.57;4.10;;;;;;;16.33;100.00;100630.06;5010527;28;20067;-76
2022/06/19 09:58:03;;;;;;;17.98;4.32;;;;;;;16.53;100.00;100596.94;5014668;28;20104;-76
2022/06/19 10:00:33;;;;;;;15.88;4.50;;;;;;;16.52;100.00;100593.44;5014279;28;20121;-76
2022/06/19 10:03:18;;;;;;;21.63;4.00;;;;;;;16.56;100.00;100585.78;5011986;28;20072;-76
2022/06/19 10:05:53;;;;;;;15.30;3.45;;;;;;;16.68;100.00;100597.59;5008030;28;20029;-75
2022/06/19 10:08:28;;;;;;;22.85;4.95;;;;;;;16.94;100.00;100595.97;5015370;28;20030;-76
2022/06/19 10:11:08;;;;;;;21.57;4.60;;;;;;;16.84;100.00;100589.13;5009099;28;20041;-76
2022/06/19 10:13:56;;;;;;;20.38;4.10;;;;;;;16.43;100.00;100591.97;5021764;28;20025;-75
2022/06/19 10:16:45;;;;;;;12.45;2.92;;;;;;;16.33;100.00;100619.28;5020562;28;20148;-77
2022/06/19 10:19:19;;;;;;;12.98;3.55;;;;;;;16.19;100.00;100634.59;5017968;28;20046;-77
2022/06/19 10:24:59;;;;;;;17.52;3.63;;;;;;;15.88;100.00;100664.72;5020293;28;20061;-76
2022/06/19 10:27:43;;;;;;;12.07;3.50;;;;;;;15.99;100.00;100683.00;5018136;28;20088;-75
2022/06/19 10:30:12;;;;;;;18.63;3.83;;;;;;;15.84;100.00;100690.34;5021815;28;20111;-75
2022/06/19 10:32:59;;;;;;;15.82;3.67;;;;;;;15.78;100.00;100693.81;5024332;28;20113;-75
2022/06/19 10:35:37;;;;;;;16.95;4.07;;;;;;;15.78;100.00;100707.28;5012487;28;20079;-75
2022/06/19 10:38:21;;;;;;;19.58;3.97;;;;;;;15.75;100.00;100703.13;5004229;28;20045;-76
2022/06/19 10:41:08;;;;;;;17.10;3.67;;;;;;;15.81;100.00;100709.59;5020824;28;20556;-76
2022/06/19 10:43:59;;;;;;;10.90;3.53;;;;;;;15.68;100.00;100688.78;5022392;28;20053;-75
2022/06/19 10:46:26;;;;;;;13.18;3.38;;;;;;;15.72;100.00;100698.16;5018015;28;20034;-77
2022/06/19 10:49:09;;;;;;;17.92;4.63;;;;;;;15.54;100.00;100701.31;5022114;28;20382;-77
2022/06/19 10:52:13;;;;;;;17.73;4.03;;;;;;;15.68;100.00;100718.38;5017601;28;20034;-75
2022/06/19 10:54:53;;;;;;;24.65;4.10;;;;;;;15.91;100.00;100722.72;4975366;28;20045;-75
2022/06/19 10:58:00;;;;;;;18.27;4.45;;;;;;;15.90;100.00;100703.03;5018428;28;20049;-75
2022/06/19 11:00:25;;;;;;;15.35;3.78;;;;;;;15.73;100.00;100688.22;5017783;28;20059;-75
2022/06/19 11:05:50;;;;;;;15.70;3.88;;;;;;;15.51;100.00;100696.31;5021387;28;20037;-76
2022/06/19 11:08:18;;;;;;;14.63;3.65;;;;;;;15.40;100.00;100707.63;5014219;28;20064;-77
2022/06/19 11:10:51;;;;;;;9.35;3.60;;;;;;;15.63;100.00;100727.03;5009166;28;20869;-75
2022/06/19 11:13:17;;;;;;;13.73;3.30;;;;;;;15.76;100.00;100733.59;5003498;28;20041;-75
2022/06/19 11:15:47;;;;;;;11.87;3.53;;;;;;;15.71;100.00;100717.19;4994084;28;20461;-76
2022/06/19 11:18:15;;;;;;;21.27;3.72;;;;;;;15.69;100.00;100703.91;5015096;28;20560;-76
2022/06/19 11:20:53;;;;;;;13.63;4.07;;;;;;;15.68;100.00;100709.47;4991930;28;20425;-77
2022/06/19 11:23:23;;;;;;;11.43;3.30;;;;;;;15.65;100.00;100715.25;5029758;28;20806;-75
2022/06/19 11:26:00;;;;;;;15.27;3.65;;;;;;;15.74;100.00;100736.47;5015594;28;20041;-77
2022/06/19 11:29:04;;;;;;;16.52;4.68;;;;;;;15.44;100.00;100722.34;5022754;28;20487;-75
2022/06/19 11:31:40;;;;;;;10.63;3.30;;;;;;;15.57;100.00;100717.06;4979750;28;20132;-75
2022/06/19 11:37:16;;;;;;;10.20;2.72;;;;;;;15.58;100.00;100702.59;5014306;28;20042;-76
2022/06/19 11:39:49;;;;;;;15.98;3.58;;;;;;;15.85;100.00;100670.50;5023597;28;20398;-75
2022/06/19 11:42:51;;;;;;;15.13;3.83;;;;;;;16.15;100.00;100621.72;5017660;28;20148;-76